Siem Pilot — LCPF — position and weather

sailwx.info

Track history (hours):
 
Tides and Currents Weather Stations Pressure Air Temp Water Temp Dewpoint Dewpoint Depression Visibility Wind Speed Wind Dir Waves Ship Positions

Siem Pilot

Last reported at 2015-Aug-03 01:20 UTC. Time now 2015-Aug-03 15:13 UTC.
Position N 37°45' E 018°24'.

Length 88 m; draft 5.8 m.

Type: Law enforcement. MMSI: 257458000.

Date/timePositionNaut miles runAvg speedWind from/ knotsBaromVisibWave heightAir tempDewpointWater temp
2015-Aug-03 01:20N 37°45' E 018°24'1113.6
2015-Aug-03 00:32N 37°55' E 018°22'1313.7
2015-Aug-02 23:33N 38°09' E 018°20'1413.7
2015-Aug-02 22:33N 38°22' E 018°17'  
2015-Jul-31 08:33N 40°38' E 017°57'17 6.9
2015-Jul-31 06:04N 40°32' E 018°18'713.1
2015-Jul-31 05:32N 40°26' E 018°24'  
2015-Jul-28 04:24N 37°30' E 015°06'0 0.0
2015-Jul-27 00:32N 37°30' E 015°06'0 0.0
2015-Jul-26 23:32N 37°30' E 015°06'0 0.0
2015-Jul-26 22:32N 37°30' E 015°06'0 0.0
2015-Jul-26 21:31N 37°30' E 015°06'0 0.0
2015-Jul-26 20:33N 37°30' E 015°06'0 0.0
2015-Jul-26 19:31N 37°30' E 015°06'27 1.8
2015-Jul-26 04:24N 37°51' E 015°27'8 9.9
2015-Jul-26 03:33N 37°59' E 015°31'1212.0
2015-Jul-26 02:34N 38°11' E 015°35'10 9.6
2015-Jul-26 01:33N 38°20' E 015°37'1212.1
2015-Jul-26 00:33N 38°20' E 015°22'1211.6
2015-Jul-25 23:33N 38°18' E 015°07'1111.5
2015-Jul-25 22:33N 38°17' E 014°53'5811.3
2015-Jul-25 17:28N 38°11' E 013°40'1112.1
2015-Jul-25 16:33N 38°08' E 013°26'4 3.5
2015-Jul-25 15:33N 38°08' E 013°22'0 0.0
2015-Jul-25 14:33N 38°08' E 013°22'0 0.0
2015-Jul-25 13:24N 38°08' E 013°22'0 0.0
2015-Jul-25 12:27N 38°08' E 013°22'0 0.0
2015-Jul-25 11:28N 38°08' E 013°22'0 0.0
2015-Jul-25 10:27N 38°08' E 013°22'0 0.0
2015-Jul-25 07:30N 38°08' E 013°22'0 0.0
2015-Jul-25 06:30N 38°08' E 013°22'0 0.0
2015-Jul-25 05:33N 38°08' E 013°22'0 0.0
2015-Jul-25 04:33N 38°08' E 013°22'6 5.9
2015-Jul-25 03:33N 38°13' E 013°25'3 3.2
2015-Jul-25 02:33N 38°16' E 013°25'3812.0
2015-Jul-24 23:23N 38°13' E 012°37'1011.4
2015-Jul-24 22:32N 38°11' E 012°25'1311.3
2015-Jul-24 21:22N 38°09' E 012°08'2110.4
2015-Jul-24 19:20N 37°49' E 011°60'1311.6
2015-Jul-24 18:14N 37°36' E 012°01'2910.6
2015-Jul-24 15:33N 37°10' E 012°15'1110.3
2015-Jul-24 14:30N 36°59' E 012°17'9 9.9
2015-Jul-24 13:34N 36°50' E 012°18'10 9.8
2015-Jul-24 12:30N 36°39' E 012°18'1110.0
2015-Jul-24 11:25N 36°28' E 012°19'2010.4
2015-Jul-24 09:30N 36°09' E 012°21'39 9.7
2015-Jul-24 05:26N 35°29' E 012°24'8 8.8
2015-Jul-24 04:34N 35°22' E 012°25'9 8.3
2015-Jul-24 03:30N 35°13' E 012°26'8 8.3
2015-Jul-24 02:34N 35°05' E 012°26'9 8.2
2015-Jul-24 01:31N 34°57' E 012°27'  
Track history (hours):
 
Tides and Currents Weather Stations Pressure Air Temp Water Temp Dewpoint Dewpoint Depression Visibility Wind Speed Wind Dir Waves Ship Positions

Siem Pilot

Last reported at 2015-Aug-03 01:20 UTC. Time now 2015-Aug-03 15:13 UTC.
Position N 37°45' E 018°24'.

Length 88 m; draft 5.8 m.

Type: Law enforcement. MMSI: 257458000.

Date/timePositionNaut miles runAvg speedWind from/ knotsBaromVisibWave heightAir tempDewpointWater temp
2015-Aug-03 01:20N 37°45' E 018°24'1113.6
2015-Aug-03 00:32N 37°55' E 018°22'1313.7
2015-Aug-02 23:33N 38°09' E 018°20'1413.7
2015-Aug-02 22:33N 38°22' E 018°17'  
2015-Jul-31 08:33N 40°38' E 017°57'17 6.9
2015-Jul-31 06:04N 40°32' E 018°18'713.1
2015-Jul-31 05:32N 40°26' E 018°24'  
2015-Jul-28 04:24N 37°30' E 015°06'0 0.0
2015-Jul-27 00:32N 37°30' E 015°06'0 0.0
2015-Jul-26 23:32N 37°30' E 015°06'0 0.0
2015-Jul-26 22:32N 37°30' E 015°06'0 0.0
2015-Jul-26 21:31N 37°30' E 015°06'0 0.0
2015-Jul-26 20:33N 37°30' E 015°06'0 0.0
2015-Jul-26 19:31N 37°30' E 015°06'27 1.8
2015-Jul-26 04:24N 37°51' E 015°27'8 9.9
2015-Jul-26 03:33N 37°59' E 015°31'1212.0
2015-Jul-26 02:34N 38°11' E 015°35'10 9.6
2015-Jul-26 01:33N 38°20' E 015°37'1212.1
2015-Jul-26 00:33N 38°20' E 015°22'1211.6
2015-Jul-25 23:33N 38°18' E 015°07'1111.5
2015-Jul-25 22:33N 38°17' E 014°53'5811.3
2015-Jul-25 17:28N 38°11' E 013°40'1112.1
2015-Jul-25 16:33N 38°08' E 013°26'4 3.5
2015-Jul-25 15:33N 38°08' E 013°22'0 0.0
2015-Jul-25 14:33N 38°08' E 013°22'0 0.0
2015-Jul-25 13:24N 38°08' E 013°22'0 0.0
2015-Jul-25 12:27N 38°08' E 013°22'0 0.0
2015-Jul-25 11:28N 38°08' E 013°22'0 0.0
2015-Jul-25 10:27N 38°08' E 013°22'0 0.0
2015-Jul-25 07:30N 38°08' E 013°22'0 0.0
2015-Jul-25 06:30N 38°08' E 013°22'0 0.0
2015-Jul-25 05:33N 38°08' E 013°22'0 0.0
2015-Jul-25 04:33N 38°08' E 013°22'6 5.9
2015-Jul-25 03:33N 38°13' E 013°25'3 3.2
2015-Jul-25 02:33N 38°16' E 013°25'3812.0
2015-Jul-24 23:23N 38°13' E 012°37'1011.4
2015-Jul-24 22:32N 38°11' E 012°25'1311.3
2015-Jul-24 21:22N 38°09' E 012°08'2110.4
2015-Jul-24 19:20N 37°49' E 011°60'1311.6
2015-Jul-24 18:14N 37°36' E 012°01'2910.6
2015-Jul-24 15:33N 37°10' E 012°15'1110.3
2015-Jul-24 14:30N 36°59' E 012°17'9 9.9
2015-Jul-24 13:34N 36°50' E 012°18'10 9.8
2015-Jul-24 12:30N 36°39' E 012°18'1110.0
2015-Jul-24 11:25N 36°28' E 012°19'2010.4
2015-Jul-24 09:30N 36°09' E 012°21'39 9.7
2015-Jul-24 05:26N 35°29' E 012°24'8 8.8
2015-Jul-24 04:34N 35°22' E 012°25'9 8.3
2015-Jul-24 03:30N 35°13' E 012°26'8 8.3
2015-Jul-24 02:34N 35°05' E 012°26'9 8.2
2015-Jul-24 01:31N 34°57' E 012°27'  

Dump ship's entire track history